Portada
METAR-TAF:

METAR-TAF

Aeroports :

Bagdad, Iraq

latitud: 33-15-45N, longitud: 44-14-04E, altitud: 35 m

Observació

L'informe es va fer fa 30 minuts, a les 11:00 UTC
Vent 9 kt del Nord/Nord-Oest, variant entre Oest i Nord/Nord-Est
Temperatura 20°C
Humitat 23%
Pressió 1019 hPa
Visibilitat: 2600 m

METAR: ORBI 181100Z 34009KT 280V020 9999 2600 NSC 20/M02 Q1019 NOSIG

Hora: 14:30 (11:30 UTC)

Pronòstic

L'informe es va fer fa 8 hores i 30 minuts, a les 03:00 UTC
Pronòstic vàlid del 18 a les 06 UTC al 19 a les 06 UTC
Vent 6 kt del Nord-Oest
Visibilitat: 5000 m
Escasses núvols a una alçada de 3000 ft

TAF: ORBI 180300Z 1806/1906 32006KT 5000 FEW030

Observacions i pronòstics meteorològics de més de 4000 aeroports (METAR i TAF).

Les estacions disponibles són els punts grocs i vermells al mapa.

Posi el ratolí al punt desitjat per veure el nom de l'estació.

Feu clic per veure les observacions i els pronòstics meteorològics.

Per canviar el mapa: feu clic els botons verds amb una creu de color negre per apropar; al botó verd amb un guió per allunyar la imatge; o en les fletxes verdes per a mapes adjacents.


METAR-TAF: